createdAt,value
2017-09-07T00:00:49.976Z,13.40
2017-09-07T00:03:17.544Z,13.30
2017-09-07T00:05:45.083Z,13.30
2017-09-07T00:08:12.693Z,13.30
2017-09-07T00:10:40.223Z,13.30
2017-09-07T00:13:07.764Z,13.20
2017-09-07T00:15:35.336Z,13.20
2017-09-07T00:18:02.866Z,13.20
2017-09-07T00:20:30.482Z,13.20
2017-09-07T00:22:58.045Z,13.20
2017-09-07T00:25:25.621Z,13.10
2017-09-07T00:27:53.169Z,13.10
2017-09-07T00:30:20.744Z,13.00
2017-09-07T00:32:48.303Z,13.00
2017-09-07T00:35:15.867Z,13.00
2017-09-07T00:37:43.399Z,13.10
2017-09-07T00:40:11.040Z,13.20
2017-09-07T00:42:38.599Z,13.20
2017-09-07T00:45:06.216Z,13.30
2017-09-07T00:47:33.784Z,13.30
2017-09-07T00:50:01.372Z,13.30
2017-09-07T00:52:28.905Z,13.20
2017-09-07T00:54:56.485Z,13.20
2017-09-07T00:57:24.019Z,13.30
2017-09-07T00:59:51.707Z,13.40
2017-09-07T01:02:19.237Z,13.40
2017-09-07T01:04:46.816Z,13.30
2017-09-07T01:07:14.347Z,13.40
2017-09-07T01:09:41.875Z,13.50
2017-09-07T01:12:09.773Z,13.50
2017-09-07T01:14:37.391Z,13.50
2017-09-07T01:17:04.960Z,13.50
2017-09-07T01:19:32.487Z,13.50
2017-09-07T01:22:00.060Z,13.50
2017-09-07T01:24:59.455Z,13.70
2017-09-07T01:27:27.751Z,13.70
2017-09-07T01:29:55.323Z,13.70
2017-09-07T01:32:22.863Z,13.70
2017-09-07T01:34:50.426Z,13.80
2017-09-07T01:37:18.058Z,13.90
2017-09-07T01:39:45.632Z,13.80
2017-09-07T01:42:13.164Z,13.80
2017-09-07T01:44:40.769Z,13.90
2017-09-07T01:47:08.300Z,13.90
2017-09-07T01:49:35.833Z,13.90
2017-09-07T01:52:03.424Z,13.90
2017-09-07T01:54:30.968Z,13.90
2017-09-07T01:56:58.536Z,13.90
2017-09-07T01:59:26.079Z,13.90
2017-09-07T02:01:53.693Z,14.00
2017-09-07T02:04:21.236Z,14.00
2017-09-07T02:06:48.801Z,14.00
2017-09-07T02:09:16.355Z,14.00
2017-09-07T02:11:43.951Z,14.00
2017-09-07T02:14:11.632Z,14.10
2017-09-07T02:16:39.233Z,14.10
2017-09-07T02:19:07.531Z,14.10
2017-09-07T02:21:35.068Z,14.10
2017-09-07T02:24:02.624Z,14.00
2017-09-07T02:26:30.254Z,14.10
2017-09-07T02:28:57.830Z,14.00
2017-09-07T02:31:25.396Z,14.00
2017-09-07T02:33:52.980Z,14.00
2017-09-07T02:36:20.518Z,14.20
2017-09-07T02:38:48.095Z,14.10
2017-09-07T02:41:15.630Z,14.00
2017-09-07T02:43:43.205Z,14.00
2017-09-07T02:46:10.740Z,13.90
2017-09-07T02:48:38.386Z,13.90
2017-09-07T02:51:05.931Z,13.90
2017-09-07T02:53:33.491Z,13.90
2017-09-07T02:56:01.023Z,13.90
2017-09-07T02:58:28.618Z,13.80
2017-09-07T03:00:56.969Z,13.90
2017-09-07T03:03:24.630Z,13.90
2017-09-07T03:05:52.999Z,14.00
2017-09-07T03:08:20.647Z,14.00
2017-09-07T03:10:49.065Z,14.10
2017-09-07T03:13:17.486Z,14.10
2017-09-07T03:15:45.186Z,14.10
2017-09-07T03:18:12.814Z,14.00
2017-09-07T03:20:40.431Z,14.00
2017-09-07T03:23:08.096Z,14.00
2017-09-07T03:25:35.637Z,14.00
2017-09-07T03:28:03.215Z,14.00
2017-09-07T03:30:30.748Z,14.20
2017-09-07T03:32:58.307Z,14.20
2017-09-07T03:35:27.491Z,14.20
2017-09-07T03:37:55.054Z,14.30
2017-09-07T03:40:22.874Z,14.10
2017-09-07T03:42:50.635Z,14.20
2017-09-07T03:45:19.259Z,14.20
2017-09-07T03:47:46.791Z,14.20
2017-09-07T03:50:14.369Z,14.40
2017-09-07T03:52:41.903Z,14.40
2017-09-07T03:55:09.488Z,14.30
2017-09-07T03:57:37.016Z,14.20
2017-09-07T04:00:04.664Z,14.20
2017-09-07T04:02:32.210Z,14.20
2017-09-07T04:04:59.812Z,14.20
2017-09-07T04:07:28.121Z,14.20
2017-09-07T04:09:55.691Z,14.20
2017-09-07T04:12:23.239Z,14.20
2017-09-07T04:14:50.820Z,14.20
2017-09-07T04:17:18.353Z,14.10
2017-09-07T04:19:46.688Z,14.30
2017-09-07T04:22:14.212Z,14.30
2017-09-07T04:24:41.787Z,14.30
2017-09-07T04:27:10.094Z,14.20
2017-09-07T04:29:37.671Z,14.20
2017-09-07T04:32:05.195Z,14.30
2017-09-07T04:34:32.764Z,14.30
2017-09-07T04:37:00.295Z,14.40
2017-09-07T04:39:27.876Z,14.30
2017-09-07T04:41:56.184Z,14.40
2017-09-07T04:44:23.748Z,14.30
2017-09-07T04:46:51.299Z,14.30
2017-09-07T04:49:18.879Z,14.20
2017-09-07T04:51:47.192Z,14.40
2017-09-07T04:54:14.796Z,14.40
2017-09-07T04:56:43.102Z,14.50
2017-09-07T04:59:10.671Z,14.50
2017-09-07T05:01:38.215Z,14.40
2017-09-07T05:04:05.783Z,14.50
2017-09-07T05:06:34.079Z,14.40
2017-09-07T05:09:01.660Z,14.40
2017-09-07T05:11:29.971Z,14.40
2017-09-07T05:13:57.539Z,14.40
2017-09-07T05:16:25.103Z,14.30
2017-09-07T05:18:52.681Z,14.30
2017-09-07T05:21:20.251Z,14.20
2017-09-07T05:23:48.729Z,14.20
2017-09-07T05:26:16.309Z,14.30
2017-09-07T05:28:43.931Z,14.20
2017-09-07T05:31:11.513Z,14.20
2017-09-07T05:33:39.051Z,14.20
2017-09-07T05:36:06.632Z,14.20
2017-09-07T05:38:34.931Z,14.30
2017-09-07T05:41:02.491Z,14.30
2017-09-07T05:43:30.027Z,14.30
2017-09-07T05:45:57.596Z,14.40
2017-09-07T05:48:25.132Z,14.40
2017-09-07T05:50:52.711Z,14.40
2017-09-07T05:53:20.250Z,14.50
2017-09-07T05:55:47.836Z,14.40
2017-09-07T05:58:15.390Z,14.50
2017-09-07T06:00:42.953Z,14.50
2017-09-07T06:03:10.491Z,14.50
2017-09-07T06:05:38.059Z,14.50
2017-09-07T06:08:05.596Z,14.50
2017-09-07T06:10:33.196Z,14.50
2017-09-07T06:13:01.517Z,14.50
2017-09-07T06:15:29.879Z,14.50
2017-09-07T06:17:57.411Z,14.50
2017-09-07T06:20:24.991Z,14.50
2017-09-07T06:22:52.555Z,14.50
2017-09-07T06:25:20.889Z,14.60
2017-09-07T06:27:48.437Z,14.50
2017-09-07T06:30:16.032Z,14.60
2017-09-07T06:32:43.616Z,14.60
2017-09-07T06:35:11.916Z,14.70
2017-09-07T06:37:40.252Z,14.70
2017-09-07T06:40:07.792Z,14.60
2017-09-07T06:42:35.368Z,14.70
2017-09-07T06:45:03.783Z,14.80
2017-09-07T06:47:31.352Z,14.80
2017-09-07T06:49:58.907Z,14.80
2017-09-07T06:52:26.570Z,15.00
2017-09-07T06:54:54.889Z,15.10
2017-09-07T06:57:22.471Z,15.10
2017-09-07T06:59:50.062Z,15.30
2017-09-07T07:02:17.616Z,15.50
2017-09-07T07:04:45.172Z,15.50
2017-09-07T07:07:12.750Z,15.60
2017-09-07T07:09:41.068Z,15.60
2017-09-07T07:12:08.639Z,15.60
2017-09-07T07:14:36.190Z,15.90
2017-09-07T07:17:03.831Z,16.00
2017-09-07T07:19:31.396Z,16.00
2017-09-07T07:21:59.763Z,16.20
2017-09-07T07:24:27.306Z,16.20
2017-09-07T07:26:54.881Z,16.10
2017-09-07T07:29:22.411Z,16.10
2017-09-07T07:31:49.984Z,16.10
2017-09-07T07:34:17.525Z,16.10
2017-09-07T07:36:45.095Z,16.10
2017-09-07T07:39:13.388Z,16.20
2017-09-07T07:41:40.951Z,16.20
2017-09-07T07:44:09.258Z,16.30
2017-09-07T07:46:36.827Z,16.30
2017-09-07T07:49:04.368Z,16.30
2017-09-07T07:51:31.948Z,16.10
2017-09-07T07:54:00.266Z,16.00
2017-09-07T07:56:27.857Z,16.00
2017-09-07T07:58:55.418Z,16.10
2017-09-07T08:01:22.979Z,16.00
2017-09-07T08:03:50.516Z,15.90
2017-09-07T08:06:18.106Z,15.90
2017-09-07T08:08:45.654Z,16.00
2017-09-07T08:11:13.243Z,16.10
2017-09-07T08:13:40.784Z,16.30
2017-09-07T08:16:08.365Z,16.40
2017-09-07T08:18:35.918Z,16.50
2017-09-07T08:21:03.505Z,16.70
2017-09-07T08:23:31.847Z,16.90
2017-09-07T08:26:00.165Z,17.00
2017-09-07T08:28:27.799Z,17.00
2017-09-07T08:30:55.371Z,17.20
2017-09-07T08:33:22.935Z,17.30
2017-09-07T08:35:50.539Z,17.40
2017-09-07T08:38:18.079Z,17.30
2017-09-07T08:40:45.652Z,17.30
2017-09-07T08:43:13.206Z,17.30
2017-09-07T08:45:40.789Z,17.20
2017-09-07T08:48:08.338Z,17.30
2017-09-07T08:50:36.657Z,17.70
2017-09-07T08:53:04.234Z,17.70
2017-09-07T08:55:31.847Z,17.90
2017-09-07T08:57:59.414Z,18.20
2017-09-07T09:00:27.025Z,18.30
2017-09-07T09:02:54.569Z,18.30
2017-09-07T09:05:22.141Z,18.30
2017-09-07T09:07:49.698Z,18.30
2017-09-07T09:10:17.280Z,18.40
2017-09-07T09:12:44.821Z,18.30
2017-09-07T09:15:13.183Z,18.10
2017-09-07T09:17:40.731Z,18.10
2017-09-07T09:20:08.620Z,18.20
2017-09-07T09:22:36.238Z,18.30
2017-09-07T09:25:03.827Z,18.50
2017-09-07T09:27:31.408Z,18.70
2017-09-07T09:29:59.837Z,18.70
2017-09-07T09:32:27.417Z,18.70
2017-09-07T09:34:55.899Z,19.00
2017-09-07T09:37:23.478Z,18.90
2017-09-07T09:39:51.013Z,19.00
2017-09-07T09:42:18.600Z,19.20
2017-09-07T09:44:46.144Z,19.20
2017-09-07T09:47:13.732Z,19.20
2017-09-07T09:49:41.269Z,19.30
2017-09-07T09:52:08.859Z,19.30
2017-09-07T09:54:36.412Z,19.30
2017-09-07T09:57:09.875Z,19.50
2017-09-07T09:59:37.456Z,19.70
2017-09-07T10:02:05.040Z,19.70
2017-09-07T10:04:32.588Z,19.70
2017-09-07T10:07:00.155Z,19.90
2017-09-07T10:09:27.696Z,20.00
2017-09-07T10:11:55.271Z,20.10
2017-09-07T10:14:22.852Z,20.30
2017-09-07T10:16:50.391Z,20.30
2017-09-07T10:19:18.748Z,19.90
2017-09-07T10:21:46.331Z,19.90
2017-09-07T10:24:13.875Z,19.50
2017-09-07T10:26:41.416Z,19.50
2017-09-07T10:29:09.006Z,19.60
2017-09-07T10:31:36.614Z,19.90
2017-09-07T10:34:04.151Z,20.30
2017-09-07T10:36:31.697Z,20.50
2017-09-07T10:38:59.279Z,20.60
2017-09-07T10:41:26.823Z,20.80
2017-09-07T10:43:54.475Z,21.00
2017-09-07T10:46:22.017Z,21.00
2017-09-07T10:48:49.580Z,21.00
2017-09-07T10:51:17.132Z,21.20
2017-09-07T10:53:44.700Z,21.30
2017-09-07T10:56:13.010Z,21.60
2017-09-07T10:58:40.598Z,21.60
2017-09-07T11:01:08.920Z,21.80
2017-09-07T11:03:36.485Z,21.80
2017-09-07T11:06:04.016Z,21.80
2017-09-07T11:08:31.609Z,21.60
2017-09-07T11:10:59.908Z,21.20
2017-09-07T11:13:27.484Z,21.10
2017-09-07T11:15:55.860Z,20.70
2017-09-07T11:18:24.279Z,20.70
2017-09-07T11:20:52.693Z,20.40
2017-09-07T11:23:20.276Z,20.40
2017-09-07T11:25:48.000Z,20.40
2017-09-07T11:28:15.616Z,20.20
2017-09-07T11:30:43.204Z,20.10
2017-09-07T11:33:11.495Z,19.90
2017-09-07T11:35:39.044Z,19.90
2017-09-07T11:38:06.625Z,19.80
2017-09-07T11:40:34.168Z,19.80
2017-09-07T11:43:01.740Z,19.70
2017-09-07T11:45:30.046Z,19.70
2017-09-07T11:47:57.624Z,19.70
2017-09-07T11:50:25.168Z,19.80
2017-09-07T11:52:52.749Z,19.90
2017-09-07T11:55:20.293Z,20.00
2017-09-07T11:57:48.646Z,19.90
2017-09-07T12:00:16.939Z,19.70
2017-09-07T12:02:44.509Z,19.70
2017-09-07T12:05:12.039Z,19.50
2017-09-07T12:07:39.613Z,19.30
2017-09-07T12:10:07.148Z,19.10
2017-09-07T12:12:34.724Z,19.00
2017-09-07T12:15:03.046Z,19.30
2017-09-07T12:17:30.584Z,19.30
2017-09-07T12:19:58.163Z,19.50
2017-09-07T12:22:25.705Z,19.70
2017-09-07T12:24:53.338Z,19.90
2017-09-07T12:27:20.876Z,20.10
2017-09-07T12:29:48.448Z,20.20
2017-09-07T12:32:15.987Z,20.30
2017-09-07T12:34:43.563Z,20.40
2017-09-07T12:37:11.859Z,20.20
2017-09-07T12:39:39.431Z,20.20
2017-09-07T12:42:06.968Z,20.30
2017-09-07T12:44:34.546Z,20.40
2017-09-07T12:47:02.082Z,20.40
2017-09-07T12:49:29.677Z,20.40
2017-09-07T12:51:57.218Z,20.50
2017-09-07T12:54:24.795Z,20.80
2017-09-07T12:56:52.366Z,21.00
2017-09-07T12:59:19.953Z,21.20
2017-09-07T13:01:47.532Z,21.30
2017-09-07T13:04:16.206Z,21.40
2017-09-07T13:06:43.825Z,21.40
2017-09-07T13:09:11.404Z,21.40
2017-09-07T13:11:38.957Z,21.30
2017-09-07T13:14:06.520Z,21.10
2017-09-07T13:16:34.052Z,20.90
2017-09-07T13:19:01.627Z,20.90
2017-09-07T13:21:29.175Z,21.10
2017-09-07T13:23:56.752Z,21.30
2017-09-07T13:26:25.068Z,21.30
2017-09-07T13:28:52.900Z,21.30
2017-09-07T13:31:20.444Z,21.50
2017-09-07T13:33:47.999Z,21.50
2017-09-07T13:36:15.584Z,21.50
2017-09-07T13:38:43.899Z,21.40
2017-09-07T13:41:11.468Z,21.40
2017-09-07T13:43:39.013Z,21.50
2017-09-07T13:46:06.605Z,21.70
2017-09-07T13:48:34.143Z,21.80
2017-09-07T13:51:02.480Z,21.90
2017-09-07T13:53:30.025Z,22.00
2017-09-07T13:55:57.603Z,21.90
2017-09-07T13:58:25.137Z,21.70
2017-09-07T14:00:53.468Z,21.30
2017-09-07T14:03:21.013Z,21.40
2017-09-07T14:05:48.580Z,21.60
2017-09-07T14:08:16.889Z,21.90
2017-09-07T14:10:44.557Z,21.90
2017-09-07T14:13:12.148Z,22.10
2017-09-07T14:15:40.470Z,21.90
2017-09-07T14:18:08.032Z,21.90
2017-09-07T14:20:35.563Z,21.80
2017-09-07T14:23:03.132Z,21.80
2017-09-07T14:25:31.454Z,21.70
2017-09-07T14:27:59.037Z,21.70
2017-09-07T14:30:27.343Z,21.50
2017-09-07T14:32:54.913Z,21.50
2017-09-07T14:35:22.435Z,21.50
2017-09-07T14:37:50.027Z,21.60
2017-09-07T14:40:18.368Z,21.40
2017-09-07T14:42:45.954Z,21.40
2017-09-07T14:45:14.247Z,22.10
2017-09-07T14:47:41.836Z,22.10
2017-09-07T14:50:09.371Z,22.40
2017-09-07T14:52:36.962Z,22.90
2017-09-07T14:55:05.267Z,23.30
2017-09-07T14:57:32.836Z,23.30
2017-09-07T15:00:00.373Z,23.90
2017-09-07T15:02:27.942Z,24.30
2017-09-07T15:04:56.247Z,24.80
2017-09-07T15:07:23.819Z,24.70
2017-09-07T15:09:51.363Z,24.60
2017-09-07T15:12:18.944Z,24.20
2017-09-07T15:14:47.282Z,23.20
2017-09-07T15:17:14.859Z,23.10
2017-09-07T15:19:43.163Z,22.60
2017-09-07T15:22:10.740Z,22.60
2017-09-07T15:24:38.371Z,22.40
2017-09-07T15:27:05.936Z,22.20
2017-09-07T15:29:33.482Z,22.00
2017-09-07T15:32:01.062Z,21.80
2017-09-07T15:34:28.620Z,21.50
2017-09-07T15:36:56.200Z,21.40
2017-09-07T15:39:23.756Z,21.20
2017-09-07T15:41:51.336Z,21.00
2017-09-07T15:44:19.638Z,20.60
2017-09-07T15:46:47.234Z,20.50
2017-09-07T15:49:15.547Z,20.20
2017-09-07T15:51:43.124Z,20.20
2017-09-07T15:54:10.673Z,20.10
2017-09-07T15:56:38.240Z,19.90
2017-09-07T15:59:06.548Z,19.60
2017-09-07T16:01:34.129Z,19.50
2017-09-07T16:04:01.664Z,19.50
2017-09-07T16:06:29.240Z,19.40
2017-09-07T16:08:57.553Z,19.00
2017-09-07T16:11:25.128Z,19.00
2017-09-07T16:13:52.668Z,18.90
2017-09-07T16:16:20.240Z,18.70
2017-09-07T16:18:48.555Z,18.60
2017-09-07T16:21:16.149Z,18.50
2017-09-07T16:23:43.696Z,18.50
2017-09-07T16:26:12.031Z,18.20
2017-09-07T16:28:39.580Z,18.20
2017-09-07T16:31:07.151Z,18.20
2017-09-07T16:33:35.449Z,17.90
2017-09-07T16:36:03.016Z,17.90
2017-09-07T16:38:30.557Z,17.90
2017-09-07T16:40:58.121Z,17.80
2017-09-07T16:43:25.665Z,17.80
2017-09-07T16:45:53.256Z,17.60
2017-09-07T16:48:20.861Z,17.50
2017-09-07T16:50:48.411Z,17.50
2017-09-07T16:53:16.001Z,17.40
2017-09-07T16:55:43.542Z,17.30
2017-09-07T16:58:11.131Z,17.20
2017-09-07T17:00:38.677Z,17.10
2017-09-07T17:03:06.248Z,16.90
2017-09-07T17:05:34.552Z,16.90
2017-09-07T17:08:02.125Z,16.90
2017-09-07T17:10:29.664Z,16.80
2017-09-07T17:12:57.244Z,16.80
2017-09-07T17:15:25.539Z,16.60
2017-09-07T17:17:53.111Z,16.60
2017-09-07T17:20:20.664Z,16.50
2017-09-07T17:22:48.256Z,16.40
2017-09-07T17:25:16.563Z,16.30
2017-09-07T17:27:44.136Z,16.30
2017-09-07T17:30:11.679Z,16.30
2017-09-07T17:32:39.259Z,16.20
2017-09-07T17:35:06.799Z,16.10
2017-09-07T17:37:34.369Z,15.90
2017-09-07T17:40:01.904Z,15.90
2017-09-07T17:42:29.502Z,15.90
2017-09-07T17:44:57.125Z,15.80
2017-09-07T17:47:24.663Z,15.70
2017-09-07T17:49:52.315Z,15.60
2017-09-07T17:52:19.916Z,15.60
2017-09-07T17:54:48.224Z,15.30
2017-09-07T17:57:15.761Z,15.30
2017-09-07T17:59:43.343Z,15.40
2017-09-07T18:02:10.931Z,15.30
2017-09-07T18:04:38.562Z,15.20
2017-09-07T18:07:06.863Z,15.00
2017-09-07T18:09:34.491Z,15.00
2017-09-07T18:12:02.021Z,15.00
2017-09-07T18:14:29.599Z,14.80
2017-09-07T18:16:57.128Z,14.70
2017-09-07T18:19:24.751Z,14.70
2017-09-07T18:21:53.123Z,14.60
2017-09-07T18:24:21.477Z,14.50
2017-09-07T18:26:49.075Z,14.40
2017-09-07T18:29:16.644Z,14.40
2017-09-07T18:31:44.268Z,14.30
2017-09-07T18:34:12.031Z,14.30
2017-09-07T18:36:39.638Z,14.40
2017-09-07T18:39:07.223Z,14.30
2017-09-07T18:41:34.863Z,14.30
2017-09-07T18:44:02.399Z,14.40
2017-09-07T18:46:30.067Z,14.40
2017-09-07T18:48:57.596Z,14.30
2017-09-07T18:51:25.168Z,14.40
2017-09-07T18:53:52.727Z,14.40
2017-09-07T18:56:21.059Z,14.40
2017-09-07T18:58:48.596Z,14.40
2017-09-07T19:01:16.172Z,14.40
2017-09-07T19:03:43.721Z,14.40
2017-09-07T19:06:11.326Z,14.50
2017-09-07T19:08:38.914Z,14.40
2017-09-07T19:11:07.275Z,14.40
2017-09-07T19:13:34.856Z,14.30
2017-09-07T19:16:02.397Z,14.30
2017-09-07T19:18:29.985Z,14.30
2017-09-07T19:20:57.620Z,14.30
2017-09-07T19:23:25.221Z,14.20
2017-09-07T19:25:52.813Z,14.10
2017-09-07T19:28:20.388Z,14.10
2017-09-07T19:30:47.925Z,14.20
2017-09-07T19:33:15.491Z,14.00
2017-09-07T19:35:43.892Z,14.00
2017-09-07T19:38:11.543Z,14.00
2017-09-07T19:40:39.086Z,14.00
2017-09-07T19:43:06.619Z,14.00
2017-09-07T19:45:34.179Z,14.00
2017-09-07T19:48:04.392Z,13.90
2017-09-07T19:50:32.121Z,13.90
2017-09-07T19:52:59.735Z,13.80
2017-09-07T19:55:28.090Z,13.80
2017-09-07T19:57:55.684Z,13.80
2017-09-07T20:00:23.236Z,13.70
2017-09-07T20:02:50.776Z,13.70
2017-09-07T20:05:18.348Z,13.70
2017-09-07T20:07:45.895Z,13.60
2017-09-07T20:10:13.471Z,13.60
2017-09-07T20:12:41.016Z,13.60
2017-09-07T20:15:08.624Z,13.60
2017-09-07T20:17:36.160Z,13.40
2017-09-07T20:20:03.729Z,13.40
2017-09-07T20:22:31.268Z,13.30
2017-09-07T20:24:58.852Z,13.10
2017-09-07T20:27:27.199Z,13.10
2017-09-07T20:29:54.732Z,13.10
2017-09-07T20:32:22.329Z,13.10
2017-09-07T20:34:49.859Z,13.20
2017-09-07T20:37:17.468Z,13.20
2017-09-07T20:39:46.105Z,13.00
2017-09-07T20:42:13.823Z,13.10
2017-09-07T20:44:42.205Z,13.00
2017-09-07T20:47:09.857Z,13.00
2017-09-07T20:49:37.396Z,13.00
2017-09-07T20:52:04.969Z,13.10
2017-09-07T20:54:32.825Z,12.90
2017-09-07T20:57:01.203Z,13.00
2017-09-07T20:59:28.743Z,12.90
2017-09-07T21:01:56.372Z,12.80
2017-09-07T21:04:23.957Z,12.70
2017-09-07T21:06:51.525Z,12.80
2017-09-07T21:09:19.954Z,12.60
2017-09-07T21:11:47.520Z,12.70
2017-09-07T21:14:15.871Z,12.60
2017-09-07T21:16:43.727Z,12.50
2017-09-07T21:19:11.508Z,12.50
2017-09-07T21:21:39.298Z,12.50
2017-09-07T21:24:08.106Z,12.50
2017-09-07T21:26:35.682Z,12.50
2017-09-07T21:29:03.253Z,12.60
2017-09-07T21:31:30.943Z,12.60
2017-09-07T21:33:58.574Z,12.60
2017-09-07T21:36:26.681Z,12.60
2017-09-07T21:38:54.553Z,12.50
2017-09-07T21:41:22.623Z,12.50
2017-09-07T21:43:50.303Z,12.50
2017-09-07T21:46:17.837Z,12.60
2017-09-07T21:48:45.517Z,12.50
2017-09-07T21:51:13.435Z,12.50
2017-09-07T21:53:41.009Z,12.40
2017-09-07T21:56:08.555Z,12.40
2017-09-07T21:58:36.890Z,12.30
2017-09-07T22:01:04.801Z,12.30
2017-09-07T22:03:32.822Z,12.20
2017-09-07T22:06:00.677Z,12.30
2017-09-07T22:08:28.281Z,12.30
2017-09-07T22:10:56.007Z,12.30
2017-09-07T22:13:24.132Z,12.20
2017-09-07T22:15:51.668Z,12.30
2017-09-07T22:18:19.276Z,12.10
2017-09-07T22:20:46.822Z,12.10
2017-09-07T22:23:14.543Z,12.10
2017-09-07T22:25:42.112Z,12.10
2017-09-07T22:28:09.696Z,12.10
2017-09-07T22:30:37.235Z,12.10
2017-09-07T22:33:05.551Z,12.00
2017-09-07T22:35:33.128Z,12.00
2017-09-07T22:38:00.763Z,12.00
2017-09-07T22:40:28.339Z,12.10
2017-09-07T22:42:55.868Z,12.10
2017-09-07T22:45:23.435Z,12.00
2017-09-07T22:47:51.037Z,12.00
2017-09-07T22:50:18.615Z,12.00
2017-09-07T22:52:46.161Z,12.10
2017-09-07T22:55:13.746Z,12.10
2017-09-07T22:57:41.337Z,12.00
2017-09-07T23:00:08.972Z,12.00
2017-09-07T23:02:36.508Z,12.00
2017-09-07T23:05:04.051Z,12.10
2017-09-07T23:07:31.711Z,12.10
2017-09-07T23:10:00.088Z,12.10
2017-09-07T23:12:27.716Z,12.10
2017-09-07T23:14:55.308Z,12.10
2017-09-07T23:17:23.624Z,11.90
2017-09-07T23:19:51.159Z,11.90
2017-09-07T23:22:18.744Z,12.00
2017-09-07T23:24:46.368Z,12.00
2017-09-07T23:27:13.968Z,11.90
2017-09-07T23:29:41.519Z,11.80
2017-09-07T23:32:09.255Z,11.90
2017-09-07T23:34:37.557Z,11.80
2017-09-07T23:37:05.179Z,11.90
2017-09-07T23:39:32.728Z,11.80
2017-09-07T23:42:00.315Z,11.70
2017-09-07T23:44:27.852Z,11.80
2017-09-07T23:46:55.388Z,11.80
2017-09-07T23:49:22.975Z,11.70
2017-09-07T23:51:50.521Z,11.70
2017-09-07T23:54:18.129Z,11.80
2017-09-07T23:56:45.708Z,11.80
2017-09-07T23:59:13.279Z,11.70
